createdAt,value
2022-09-03T00:00:09.693Z,217.40
2022-09-03T00:03:18.433Z,214.07
2022-09-03T00:06:15.917Z,183.20
2022-09-03T00:09:21.231Z,187.48
2022-09-03T00:11:53.191Z,186.52
2022-09-03T00:14:39.427Z,204.95
2022-09-03T00:17:14.269Z,189.98
2022-09-03T00:19:48.716Z,191.38
2022-09-03T00:22:21.724Z,224.35
2022-09-03T00:24:50.191Z,229.38
2022-09-03T00:27:22.527Z,233.25
2022-09-03T00:30:11.287Z,236.32
2022-09-03T00:32:47.357Z,234.88
2022-09-03T00:35:31.443Z,246.23
2022-09-03T00:38:03.444Z,221.75
2022-09-03T00:41:02.774Z,227.00
2022-09-03T00:44:11.021Z,274.88
2022-09-03T00:46:47.929Z,266.05
2022-09-03T00:49:45.280Z,274.05
2022-09-03T00:52:26.792Z,269.33
2022-09-03T00:55:39.407Z,289.75
2022-09-03T00:58:37.912Z,266.38
2022-09-03T01:01:13.484Z,279.38
2022-09-03T01:04:06.444Z,267.73
2022-09-03T01:06:58.942Z,258.47
2022-09-03T01:09:29.529Z,276.33
2022-09-03T01:12:22.269Z,283.25
2022-09-03T01:14:57.862Z,268.10
2022-09-03T01:17:33.288Z,267.30
2022-09-03T01:20:28.641Z,269.42
2022-09-03T01:23:14.322Z,258.90
2022-09-03T01:25:59.577Z,276.33
2022-09-03T01:28:38.995Z,281.48
2022-09-03T01:31:21.265Z,283.52
2022-09-03T01:34:17.678Z,288.27
2022-09-03T01:37:29.009Z,263.98
2022-09-03T01:40:12.043Z,297.67
2022-09-03T01:43:07.855Z,295.83
2022-09-03T01:45:51.267Z,266.90
2022-09-03T01:48:40.490Z,278.02
2022-09-03T01:51:25.169Z,292.40
2022-09-03T01:54:06.745Z,267.13
2022-09-03T01:57:17.276Z,265.97
2022-09-03T02:00:13.509Z,268.13
2022-09-03T02:02:43.385Z,262.03
2022-09-03T02:05:14.212Z,256.00
2022-09-03T02:07:52.952Z,254.97
2022-09-03T02:10:27.966Z,257.27
2022-09-03T02:13:07.895Z,255.80
2022-09-03T02:15:38.196Z,250.07
2022-09-03T02:18:11.079Z,243.90
2022-09-03T02:20:38.630Z,251.30
2022-09-03T02:23:05.849Z,239.68
2022-09-03T02:25:37.903Z,224.98
2022-09-03T02:28:11.221Z,214.93
2022-09-03T02:30:43.879Z,232.23
2022-09-03T02:33:10.853Z,219.97
2022-09-03T02:35:37.770Z,240.52
2022-09-03T02:38:13.040Z,226.68
2022-09-03T02:40:39.877Z,230.23
2022-09-03T02:43:10.286Z,229.55
2022-09-03T02:45:42.014Z,233.07
2022-09-03T02:48:10.271Z,233.00
2022-09-03T02:50:43.608Z,219.95
2022-09-03T02:53:10.356Z,233.40
2022-09-03T02:55:37.002Z,225.60
2022-09-03T02:58:05.943Z,228.07
2022-09-03T03:00:33.169Z,253.95
2022-09-03T03:02:59.782Z,250.10
2022-09-03T03:05:35.784Z,255.95
2022-09-03T03:08:02.621Z,245.65
2022-09-03T03:10:29.221Z,252.02
2022-09-03T03:12:55.889Z,255.98
2022-09-03T03:15:22.518Z,257.55
2022-09-03T03:17:49.133Z,261.53
2022-09-03T03:20:15.774Z,241.35
2022-09-03T03:22:42.427Z,259.63
2022-09-03T03:25:09.807Z,251.13
2022-09-03T03:27:42.366Z,253.68
2022-09-03T03:30:10.635Z,241.93
2022-09-03T03:32:37.933Z,244.98
2022-09-03T03:35:06.564Z,252.63
2022-09-03T03:37:35.615Z,254.43
2022-09-03T03:40:02.966Z,248.48
2022-09-03T03:42:29.592Z,244.90
2022-09-03T03:44:56.288Z,229.02
2022-09-03T03:47:23.027Z,230.95
2022-09-03T03:49:49.609Z,246.90
2022-09-03T03:52:16.231Z,254.00
2022-09-03T03:54:42.843Z,247.52
2022-09-03T03:57:09.401Z,234.57
2022-09-03T03:59:35.984Z,230.13
2022-09-03T04:02:02.611Z,238.90
2022-09-03T04:04:29.368Z,244.00
2022-09-03T04:06:56.032Z,225.88
2022-09-03T04:09:22.817Z,244.18
2022-09-03T04:11:50.789Z,250.18
2022-09-03T04:14:20.424Z,231.75
2022-09-03T04:16:47.217Z,236.30
2022-09-03T04:19:13.905Z,239.60
2022-09-03T04:21:40.531Z,223.68
2022-09-03T04:24:07.279Z,238.65
2022-09-03T04:26:34.669Z,238.05
2022-09-03T04:29:07.624Z,226.98
2022-09-03T04:31:35.599Z,228.65
2022-09-03T04:34:02.455Z,223.80
2022-09-03T04:36:30.946Z,231.80
2022-09-03T04:38:59.782Z,217.35
2022-09-03T04:41:28.732Z,230.95
2022-09-03T04:43:57.047Z,204.73
2022-09-03T04:46:26.489Z,215.52
2022-09-03T04:48:55.037Z,218.93
2022-09-03T04:51:28.614Z,214.00
2022-09-03T04:54:01.232Z,209.02
2022-09-03T04:56:30.799Z,218.43
2022-09-03T04:59:01.872Z,205.95
2022-09-03T05:01:30.797Z,208.32
2022-09-03T05:03:58.429Z,200.20
2022-09-03T05:06:30.101Z,198.02
2022-09-03T05:08:57.699Z,201.85
2022-09-03T05:11:25.602Z,189.20
2022-09-03T05:13:54.209Z,190.70
2022-09-03T05:16:22.985Z,189.05
2022-09-03T05:18:54.001Z,172.20
2022-09-03T05:21:21.533Z,168.60
2022-09-03T05:23:50.702Z,161.68
2022-09-03T05:26:25.999Z,150.88
2022-09-03T05:28:58.978Z,150.27
2022-09-03T05:31:28.241Z,141.25
2022-09-03T05:33:58.541Z,140.65
2022-09-03T05:36:28.066Z,132.47
2022-09-03T05:38:54.804Z,123.30
2022-09-03T05:41:22.722Z,131.43
2022-09-03T05:43:56.105Z,132.05
2022-09-03T05:46:30.119Z,125.93
2022-09-03T05:48:56.878Z,131.90
2022-09-03T05:51:23.493Z,127.47
2022-09-03T05:53:50.410Z,127.70
2022-09-03T05:56:19.292Z,124.90
2022-09-03T05:58:51.157Z,120.10
2022-09-03T06:01:29.082Z,122.80
2022-09-03T06:04:06.250Z,138.00
2022-09-03T06:06:35.674Z,127.10
2022-09-03T06:09:05.626Z,123.97
2022-09-03T06:11:34.745Z,124.55
2022-09-03T06:14:08.137Z,122.80
2022-09-03T06:16:40.149Z,117.43
2022-09-03T06:19:10.755Z,108.72
2022-09-03T06:21:42.641Z,107.88
2022-09-03T06:24:14.924Z,92.22
2022-09-03T06:26:42.848Z,90.97
2022-09-03T06:29:10.563Z,74.95
2022-09-03T06:31:37.545Z,73.97
2022-09-03T06:34:04.497Z,78.20
2022-09-03T06:36:31.604Z,79.20
2022-09-03T06:38:58.562Z,84.18
2022-09-03T06:41:28.037Z,90.18
2022-09-03T06:44:03.331Z,97.57
2022-09-03T06:46:39.033Z,107.20
2022-09-03T06:49:06.044Z,98.63
2022-09-03T06:51:33.354Z,102.93
2022-09-03T06:54:03.292Z,106.28
2022-09-03T06:56:32.340Z,99.07
2022-09-03T06:59:05.487Z,105.43
2022-09-03T07:01:33.867Z,84.30
2022-09-03T07:04:02.871Z,95.10
2022-09-03T07:06:33.068Z,85.85
2022-09-03T07:09:00.227Z,90.37
2022-09-03T07:11:30.855Z,77.38
2022-09-03T07:13:58.400Z,80.67
2022-09-03T07:16:30.173Z,77.63
2022-09-03T07:18:57.128Z,80.00
2022-09-03T07:21:26.054Z,86.90
2022-09-03T07:23:54.784Z,92.90
2022-09-03T07:26:30.839Z,101.72
2022-09-03T07:28:58.482Z,105.00
2022-09-03T07:31:28.167Z,108.90
2022-09-03T07:34:06.154Z,117.53
2022-09-03T07:36:43.033Z,102.72
2022-09-03T07:39:11.449Z,109.93
2022-09-03T07:41:38.772Z,93.57
2022-09-03T07:44:05.944Z,107.30
2022-09-03T07:46:35.213Z,104.03
2022-09-03T07:49:02.520Z,99.32
2022-09-03T07:51:32.167Z,89.57
2022-09-03T07:54:02.276Z,77.05
2022-09-03T07:56:32.406Z,73.83
2022-09-03T07:58:59.416Z,59.97
2022-09-03T08:01:28.596Z,55.28
2022-09-03T08:03:55.934Z,25.45
2022-09-03T08:06:25.576Z,10.73
2022-09-03T08:09:04.122Z,8.00
2022-09-03T08:11:32.654Z,9.23
2022-09-03T08:14:02.709Z,7.90
2022-09-03T08:16:32.108Z,5.72
2022-09-03T08:18:59.228Z,9.88
2022-09-03T08:21:29.216Z,9.57
2022-09-03T08:24:02.805Z,8.07
2022-09-03T08:26:31.912Z,8.27
2022-09-03T08:28:59.104Z,6.82
2022-09-03T08:31:27.945Z,7.28
2022-09-03T08:33:56.563Z,8.35
2022-09-03T08:36:30.000Z,7.88
2022-09-03T08:38:59.398Z,7.95
2022-09-03T08:41:52.952Z,8.23
2022-09-03T08:44:22.359Z,8.48
2022-09-03T08:47:24.465Z,6.18
2022-09-03T08:50:09.012Z,15.13
2022-09-03T08:52:50.291Z,44.10
2022-09-03T08:55:44.797Z,33.25
2022-09-03T08:58:11.961Z,61.67
2022-09-03T09:01:17.022Z,58.72
2022-09-03T09:03:49.636Z,64.38
2022-09-03T09:06:39.893Z,64.10
2022-09-03T09:09:38.052Z,82.38
2022-09-03T09:12:16.883Z,60.72
2022-09-03T09:15:17.979Z,52.22
2022-09-03T09:18:17.463Z,37.08
2022-09-03T09:20:52.739Z,74.35
2022-09-03T09:23:37.832Z,62.35
2022-09-03T09:26:12.338Z,92.10
2022-09-03T09:28:39.533Z,98.53
2022-09-03T09:31:10.167Z,84.45
2022-09-03T09:33:37.402Z,74.07
2022-09-03T09:36:08.496Z,59.03
2022-09-03T09:38:37.448Z,39.83
2022-09-03T09:41:23.372Z,31.92
2022-09-03T09:44:03.535Z,27.60
2022-09-03T09:46:41.536Z,19.98
2022-09-03T09:49:38.221Z,16.83
2022-09-03T09:52:12.026Z,15.50
2022-09-03T09:54:40.317Z,13.03
2022-09-03T09:57:14.352Z,14.63
2022-09-03T09:59:40.972Z,15.93
2022-09-03T10:02:13.832Z,13.63
2022-09-03T10:04:49.708Z,8.32
2022-09-03T10:07:32.049Z,8.73
2022-09-03T10:10:04.134Z,8.27
2022-09-03T10:12:35.355Z,2.80
2022-09-03T10:15:21.429Z,2.60
2022-09-03T10:18:03.410Z,2.03
2022-09-03T10:20:39.060Z,1.90
2022-09-03T10:23:18.010Z,2.20
2022-09-03T10:25:58.074Z,2.60
2022-09-03T10:28:30.484Z,1.77
2022-09-03T10:31:19.042Z,1.65
2022-09-03T10:34:33.648Z,1.70
2022-09-03T10:37:06.243Z,1.58
2022-09-03T10:39:54.573Z,2.60
2022-09-03T10:42:33.536Z,1.83
2022-09-03T10:45:18.077Z,2.10
2022-09-03T10:48:21.998Z,1.40
2022-09-03T10:50:51.529Z,1.40
2022-09-03T10:53:33.067Z,1.48
2022-09-03T10:56:08.975Z,1.50
2022-09-03T10:58:57.649Z,2.60
2022-09-03T11:01:45.759Z,2.88
2022-09-03T11:04:28.299Z,2.28
2022-09-03T11:07:03.076Z,3.13
2022-09-03T11:09:45.209Z,2.70
2022-09-03T11:12:22.323Z,3.20
2022-09-03T11:15:19.291Z,4.50
2022-09-03T11:17:56.813Z,5.88
2022-09-03T11:20:25.871Z,5.72
2022-09-03T11:23:03.321Z,5.97
2022-09-03T11:25:42.175Z,7.38
2022-09-03T11:28:27.757Z,6.45
2022-09-03T11:31:20.400Z,7.97
2022-09-03T11:34:19.643Z,6.88
2022-09-03T11:36:50.399Z,8.23
2022-09-03T11:39:35.073Z,9.15
2022-09-03T11:42:11.401Z,8.98
2022-09-03T11:44:51.162Z,7.75
2022-09-03T11:47:46.886Z,7.60
2022-09-03T11:50:24.956Z,7.78
2022-09-03T11:53:06.889Z,7.90
2022-09-03T11:55:47.225Z,7.60
2022-09-03T11:58:26.503Z,7.75
2022-09-03T12:00:55.135Z,10.13
2022-09-03T12:03:35.897Z,10.40
2022-09-03T12:06:05.549Z,15.55
2022-09-03T12:09:07.853Z,16.23
2022-09-03T12:11:57.702Z,23.83
2022-09-03T12:14:30.962Z,24.85
2022-09-03T12:17:06.537Z,29.35
2022-09-03T12:19:53.154Z,28.52
2022-09-03T12:22:22.759Z,31.73
2022-09-03T12:24:50.753Z,31.90
2022-09-03T12:27:24.240Z,31.38
2022-09-03T12:30:00.077Z,32.17
2022-09-03T12:32:37.172Z,24.43
2022-09-03T12:38:18.284Z,20.45
2022-09-03T12:43:40.815Z,11.90
2022-09-03T12:46:15.557Z,11.03
2022-09-03T12:52:05.773Z,10.50
2022-09-03T12:54:40.618Z,10.20
2022-09-03T12:57:08.943Z,8.30
2022-09-03T12:59:39.257Z,7.47
2022-09-03T13:02:16.057Z,6.45
2022-09-03T13:04:43.856Z,5.97
2022-09-03T13:07:23.714Z,5.78
2022-09-03T13:09:50.747Z,5.82
2022-09-03T13:12:29.111Z,4.55
2022-09-03T13:14:56.953Z,4.50
2022-09-03T13:17:23.433Z,3.93
2022-09-03T13:20:08.309Z,4.22
2022-09-03T13:22:54.081Z,2.90
2022-09-03T13:25:33.859Z,2.10
2022-09-03T13:28:40.022Z,1.95
2022-09-03T13:31:32.502Z,2.03
2022-09-03T13:34:07.900Z,1.60
2022-09-03T13:37:11.885Z,1.50
2022-09-03T13:39:53.340Z,1.70
2022-09-03T13:42:33.068Z,2.00
2022-09-03T13:45:26.292Z,2.33
2022-09-03T13:48:18.484Z,4.50
2022-09-03T13:51:09.331Z,8.95
2022-09-03T13:53:36.396Z,10.32
2022-09-03T13:56:16.778Z,12.50
2022-09-03T13:58:50.360Z,22.03
2022-09-03T14:01:41.097Z,20.35
2022-09-03T14:04:19.383Z,26.55
2022-09-03T14:07:02.811Z,30.83
2022-09-03T14:10:10.236Z,31.35
2022-09-03T14:12:55.239Z,20.60
2022-09-03T14:15:31.704Z,14.77
2022-09-03T14:18:14.001Z,11.98
2022-09-03T14:21:28.802Z,8.57
2022-09-03T14:24:07.301Z,7.70
2022-09-03T14:26:39.476Z,5.55
2022-09-03T14:29:12.031Z,5.18
2022-09-03T14:32:05.332Z,4.43
2022-09-03T14:34:59.929Z,4.80
2022-09-03T14:38:03.207Z,3.63
2022-09-03T14:40:45.122Z,2.77
2022-09-03T14:43:39.485Z,2.43
2022-09-03T14:46:30.880Z,2.33
2022-09-03T14:49:09.382Z,1.80
2022-09-03T14:52:01.278Z,1.90
2022-09-03T14:54:34.517Z,1.55
2022-09-03T14:57:13.114Z,1.40
2022-09-03T14:59:55.014Z,1.55
2022-09-03T15:02:36.593Z,1.58
2022-09-03T15:05:12.362Z,1.60
2022-09-03T15:07:46.786Z,2.03
2022-09-03T15:10:54.490Z,1.60
2022-09-03T15:13:27.885Z,1.10
2022-09-03T15:16:19.282Z,1.20
2022-09-03T15:19:04.781Z,1.52
2022-09-03T15:21:37.419Z,1.75
2022-09-03T15:24:14.006Z,1.38
2022-09-03T15:26:53.298Z,1.55
2022-09-03T15:29:48.197Z,1.60
2022-09-03T15:32:22.604Z,1.50
2022-09-03T15:35:04.425Z,1.60
2022-09-03T15:37:42.682Z,1.50
2022-09-03T15:40:41.749Z,1.58
2022-09-03T15:43:29.512Z,1.67
2022-09-03T15:46:30.307Z,1.50
2022-09-03T15:49:02.933Z,1.90
2022-09-03T15:51:49.929Z,2.35
2022-09-03T15:54:27.041Z,2.60
2022-09-03T15:57:02.441Z,3.78
2022-09-03T15:59:40.156Z,5.15
2022-09-03T16:02:33.355Z,4.40
2022-09-03T16:05:14.164Z,2.10
2022-09-03T16:08:09.438Z,1.83
2022-09-03T16:11:06.825Z,1.80
2022-09-03T16:13:44.660Z,1.85
2022-09-03T16:16:57.935Z,2.10
2022-09-03T16:19:34.153Z,2.00
2022-09-03T16:22:07.385Z,2.23
2022-09-03T16:24:45.041Z,2.30
2022-09-03T16:27:23.308Z,2.38
2022-09-03T16:29:57.935Z,2.65
2022-09-03T16:32:53.467Z,3.90
2022-09-03T16:35:31.774Z,4.50
2022-09-03T16:38:18.237Z,4.93
2022-09-03T16:41:01.923Z,3.80
2022-09-03T16:43:52.373Z,2.97
2022-09-03T16:46:49.480Z,2.90
2022-09-03T16:49:51.162Z,2.80
2022-09-03T16:52:37.557Z,4.00
2022-09-03T16:55:21.271Z,5.47
2022-09-03T16:58:09.846Z,6.63
2022-09-03T17:00:42.939Z,8.52
2022-09-03T17:03:34.493Z,7.47
2022-09-03T17:06:07.143Z,6.10
2022-09-03T17:08:42.748Z,4.95
2022-09-03T17:11:25.837Z,5.20
2022-09-03T17:14:19.552Z,4.30
2022-09-03T17:16:55.682Z,3.90
2022-09-03T17:19:52.520Z,4.88
2022-09-03T17:22:53.398Z,6.75
2022-09-03T17:25:21.069Z,13.45
2022-09-03T17:28:07.559Z,15.93
2022-09-03T17:31:09.948Z,20.77
2022-09-03T17:34:02.462Z,23.27
2022-09-03T17:36:31.378Z,30.17
2022-09-03T17:39:36.100Z,30.37
2022-09-03T17:42:06.458Z,33.28
2022-09-03T17:44:59.443Z,43.08
2022-09-03T17:47:44.659Z,34.72
2022-09-03T17:50:11.297Z,38.75
2022-09-03T17:52:44.157Z,43.17
2022-09-03T17:55:13.745Z,39.75
2022-09-03T17:57:45.946Z,36.63
2022-09-03T18:00:23.615Z,40.35
2022-09-03T18:03:14.225Z,41.60
2022-09-03T18:05:48.381Z,50.47
2022-09-03T18:08:24.839Z,51.10
2022-09-03T18:11:09.861Z,49.92
2022-09-03T18:13:54.616Z,39.63
2022-09-03T18:16:28.841Z,51.70
2022-09-03T18:19:18.826Z,48.37
2022-09-03T18:22:07.389Z,49.33
2022-09-03T18:25:06.876Z,53.38
2022-09-03T18:27:52.289Z,56.63
2022-09-03T18:30:38.125Z,57.80
2022-09-03T18:33:23.354Z,57.42
2022-09-03T18:36:08.856Z,53.47
2022-09-03T18:38:58.115Z,59.30
2022-09-03T18:42:18.753Z,55.40
2022-09-03T18:45:42.276Z,61.00
2022-09-03T18:48:51.916Z,60.45
2022-09-03T18:52:34.601Z,53.75
2022-09-03T18:56:01.104Z,63.35
2022-09-03T18:59:09.449Z,60.50
2022-09-03T19:01:58.512Z,58.15
2022-09-03T19:04:52.977Z,54.72
2022-09-03T19:08:00.107Z,62.13
2022-09-03T19:11:08.522Z,61.55
2022-09-03T19:13:58.717Z,54.33
2022-09-03T19:17:00.217Z,64.63
2022-09-03T19:19:53.499Z,57.53
2022-09-03T19:22:47.647Z,56.13
2022-09-03T19:25:34.180Z,59.15
2022-09-03T19:28:38.020Z,64.25
2022-09-03T19:31:58.368Z,68.80
2022-09-03T19:35:02.570Z,69.63
2022-09-03T19:37:59.875Z,64.82
2022-09-03T19:41:03.465Z,67.28
2022-09-03T19:43:48.558Z,71.97
2022-09-03T19:46:40.842Z,69.47
2022-09-03T19:49:50.862Z,65.20
2022-09-03T19:52:52.524Z,63.70
2022-09-03T19:55:44.140Z,71.25
2022-09-03T19:58:43.257Z,64.38
2022-09-03T20:01:30.141Z,68.95
2022-09-03T20:04:18.917Z,66.07
2022-09-03T20:07:05.114Z,83.90
2022-09-03T20:09:58.045Z,77.35
2022-09-03T20:12:28.819Z,65.70
2022-09-03T20:14:57.865Z,79.40
2022-09-03T20:17:46.104Z,73.47
2022-09-03T20:20:30.237Z,77.18
2022-09-03T20:23:02.987Z,71.13
2022-09-03T20:25:58.137Z,81.40
2022-09-03T20:28:30.811Z,55.60
2022-09-03T20:31:02.215Z,74.75
2022-09-03T20:34:03.145Z,75.30
2022-09-03T20:36:49.766Z,77.82
2022-09-03T20:39:55.368Z,80.60
2022-09-03T20:42:21.936Z,83.43
2022-09-03T20:45:06.526Z,97.00
2022-09-03T20:47:59.803Z,93.95
2022-09-03T20:50:43.613Z,88.68
2022-09-03T20:53:30.225Z,81.57
2022-09-03T20:56:03.568Z,93.80
2022-09-03T20:59:12.404Z,91.60
2022-09-03T21:01:57.655Z,81.93
2022-09-03T21:04:45.051Z,75.15
2022-09-03T21:07:17.966Z,104.67
2022-09-03T21:10:21.173Z,75.33
2022-09-03T21:12:57.227Z,99.20
2022-09-03T21:15:42.706Z,84.43
2022-09-03T21:18:27.703Z,101.93
2022-09-03T21:21:10.226Z,71.50
2022-09-03T21:23:44.720Z,103.85
2022-09-03T21:26:24.575Z,86.45
2022-09-03T21:29:09.474Z,102.82
2022-09-03T21:31:50.423Z,94.25
2022-09-03T21:34:31.057Z,84.43
2022-09-03T21:37:03.422Z,95.75
2022-09-03T21:40:01.287Z,96.63
2022-09-03T21:42:37.819Z,101.05
2022-09-03T21:45:09.205Z,79.65
2022-09-03T21:47:48.731Z,92.80
2022-09-03T21:50:19.474Z,93.97
2022-09-03T21:53:10.361Z,89.95
2022-09-03T21:55:49.086Z,87.28
2022-09-03T21:58:37.133Z,93.13
2022-09-03T22:01:10.633Z,85.00
2022-09-03T22:03:37.350Z,86.72
2022-09-03T22:06:12.153Z,82.35
2022-09-03T22:08:49.185Z,88.20
2022-09-03T22:11:29.461Z,74.25
2022-09-03T22:14:12.719Z,68.32
2022-09-03T22:16:48.083Z,82.70
2022-09-03T22:19:15.346Z,87.60
2022-09-03T22:21:57.118Z,82.25
2022-09-03T22:24:55.120Z,81.35
2022-09-03T22:27:46.574Z,86.90
2022-09-03T22:30:21.498Z,89.40
2022-09-03T22:33:18.730Z,84.10
2022-09-03T22:36:22.462Z,73.63
2022-09-03T22:38:55.304Z,85.97
2022-09-03T22:42:08.475Z,65.20
2022-09-03T22:44:55.525Z,69.90
2022-09-03T22:47:40.728Z,65.13
2022-09-03T22:50:14.068Z,88.70
2022-09-03T22:52:49.360Z,96.32
2022-09-03T22:55:18.507Z,99.22
2022-09-03T22:57:52.165Z,66.50
2022-09-03T23:00:19.178Z,83.38
2022-09-03T23:02:51.040Z,83.10
2022-09-03T23:05:43.905Z,90.47
2022-09-03T23:08:43.168Z,70.68
2022-09-03T23:11:25.296Z,89.80
2022-09-03T23:14:00.475Z,85.75
2022-09-03T23:17:06.141Z,77.60
2022-09-03T23:19:48.741Z,88.97
2022-09-03T23:22:27.723Z,72.00
2022-09-03T23:25:01.798Z,80.10
2022-09-03T23:28:00.808Z,85.45
2022-09-03T23:30:27.478Z,94.90
2022-09-03T23:32:58.331Z,78.43
2022-09-03T23:35:30.545Z,93.65
2022-09-03T23:38:13.467Z,88.80
2022-09-03T23:40:51.522Z,65.90
2022-09-03T23:43:38.975Z,72.70
2022-09-03T23:46:49.557Z,68.75
2022-09-03T23:49:29.297Z,81.93
2022-09-03T23:52:07.787Z,65.32
2022-09-03T23:54:47.886Z,78.68
2022-09-03T23:57:26.899Z,88.15
